ADDS TAF Data INFO
IDs: Format: Raw Decoded Include METARs

Data at: 0710 UTC 24 Nov 2017

KTCC 240653Z AUTO 25005KT 10SM CLR 10/M01 A2996 RMK AO2 SLP109 T01001011 402391017

KTCC 240536Z 2406/2506 25010KT P6SM BKN200
  FM241800 28011KT P6SM BKN200
  FM250200 32012KT P6SM SCT250